Time;durP1;ratioP1;P1;durP2;ratioP2;P2;SDS_P1;SDS_P2;PMS_P1;PMS_P2;Temp;Humidity;BMP_temperature;BMP_pressure;BME280_temperature;BME280_humidity;BME280_pressure;Samples;Min_cycle;Max_cycle;Signal;HPM_P1;HPM_P2
2021/05/02 00:02:23;;;;;;;35.67;26.97;;;10.90;99.90;;;;;;5033616;28;20483;-47
2021/05/02 00:04:50;;;;;;;33.07;27.77;;;10.60;99.90;;;;;;5033687;28;20442;-46
2021/05/02 00:07:16;;;;;;;37.53;27.97;;;10.70;99.90;;;;;;5033299;28;20439;-46
2021/05/02 00:09:42;;;;;;;36.33;27.30;;;10.80;99.90;;;;;;5033307;28;20467;-46
2021/05/02 00:12:09;;;;;;;34.93;27.47;;;10.40;99.90;;;;;;5032983;28;20448;-46
2021/05/02 00:14:36;;;;;;;35.87;27.13;;;10.40;99.90;;;;;;5033039;28;20860;-46
2021/05/02 00:17:03;;;;;;;30.57;27.23;;;10.50;99.90;;;;;;5033779;28;20444;-45
2021/05/02 00:19:29;;;;;;;31.60;27.03;;;10.20;99.90;;;;;;5015862;28;20463;-46
2021/05/02 00:21:55;;;;;;;32.60;27.10;;;10.30;99.90;;;;;;5033701;28;21000;-46
2021/05/02 00:24:22;;;;;;;38.27;27.33;;;10.10;99.90;;;;;;5032598;28;20804;-47
2021/05/02 00:26:50;;;;;;;33.90;27.20;;;10.20;99.90;;;;;;5033094;28;20869;-47
2021/05/02 00:29:17;;;;;;;37.00;28.07;;;10.20;99.90;;;;;;5032986;28;20749;-46
2021/05/02 00:31:45;;;;;;;33.20;27.47;;;9.80;99.90;;;;;;5033140;28;20906;-46
2021/05/02 00:34:12;;;;;;;34.83;28.50;;;10.20;99.90;;;;;;5032465;28;20432;-46
2021/05/02 00:36:39;;;;;;;38.70;28.90;;;10.20;99.90;;;;;;5032877;28;20554;-47
2021/05/02 00:39:07;;;;;;;33.73;28.70;;;10.10;99.90;;;;;;5032799;28;20427;-46
2021/05/02 00:41:35;;;;;;;34.00;28.50;;;10.50;99.90;;;;;;5032705;28;20541;-46
2021/05/02 00:44:04;;;;;;;34.87;28.43;;;10.30;99.90;;;;;;5032531;28;20459;-47
2021/05/02 00:46:35;;;;;;;34.27;28.07;;;10.00;99.90;;;;;;5015111;28;20517;-47
2021/05/02 00:49:15;;;;;;;32.80;25.80;;;10.10;99.90;;;;;;5033149;28;20444;-47
2021/05/02 00:51:45;;;;;;;32.47;28.97;;;10.20;99.90;;;;;;5015458;28;20455;-47
2021/05/02 00:54:15;;;;;;;35.07;27.47;;;10.10;99.90;;;;;;5032491;28;20455;-46
2021/05/02 00:56:56;;;;;;;37.40;29.17;;;10.30;99.90;;;;;;5033146;28;20509;-45
2021/05/02 00:59:32;;;;;;;33.17;27.93;;;9.90;99.90;;;;;;5033254;28;20481;-45
2021/05/02 01:02:03;;;;;;;35.00;27.50;;;10.10;99.90;;;;;;5032562;28;20478;-46
2021/05/02 01:04:32;;;;;;;31.43;27.10;;;10.00;99.90;;;;;;5032274;28;20458;-46
2021/05/02 01:07:02;;;;;;;32.03;26.50;;;10.00;99.90;;;;;;5032471;28;20535;-46
2021/05/02 01:09:30;;;;;;;33.20;26.93;;;9.90;99.90;;;;;;5032130;28;20581;-46
2021/05/02 01:11:59;;;;;;;39.53;28.40;;;10.10;99.90;;;;;;5032139;28;20816;-46
2021/05/02 01:14:27;;;;;;;40.50;30.20;;;10.60;99.90;;;;;;5014068;28;20475;-46
2021/05/02 01:16:56;;;;;;;39.07;29.40;;;10.10;99.90;;;;;;5032189;28;20955;-46
2021/05/02 01:19:22;;;;;;;36.57;30.07;;;10.10;99.90;;;;;;5037597;28;20855;-46
2021/05/02 01:21:50;;;;;;;38.10;29.33;;;10.20;99.90;;;;;;5038106;28;20520;-46
2021/05/02 01:24:19;;;;;;;35.10;28.20;;;10.60;99.90;;;;;;5031834;28;20535;-46
2021/05/02 01:26:47;;;;;;;36.00;29.43;;;10.10;99.90;;;;;;5032216;28;20885;-46
2021/05/02 01:29:14;;;;;;;37.50;29.50;;;10.30;99.90;;;;;;5032082;28;20821;-46
2021/05/02 01:31:42;;;;;;;35.60;28.43;;;10.10;99.90;;;;;;5032140;28;20505;-46
2021/05/02 01:34:10;;;;;;;39.83;30.30;;;10.10;99.90;;;;;;5031661;28;20513;-46
2021/05/02 01:36:36;;;;;;;42.67;31.50;;;9.90;99.90;;;;;;5031899;28;20463;-46
2021/05/02 01:39:05;;;;;;;44.23;33.10;;;10.50;99.90;;;;;;5032249;28;20435;-46
2021/05/02 01:41:32;;;;;;;37.57;30.53;;;10.00;99.90;;;;;;5031793;28;20526;-46
2021/05/02 01:43:59;;;;;;;37.97;29.53;;;10.30;99.90;;;;;;5031425;28;20517;-46
2021/05/02 01:46:30;;;;;;;39.10;30.20;;;9.90;99.90;;;;;;5032318;28;20439;-46
2021/05/02 01:48:56;;;;;;;40.50;30.27;;;9.90;99.90;;;;;;5032328;28;20986;-46
2021/05/02 01:51:23;;;;;;;38.70;29.60;;;10.20;99.90;;;;;;5032275;28;20522;-46
2021/05/02 01:53:50;;;;;;;38.93;30.10;;;9.70;99.90;;;;;;5014194;28;20494;-46
2021/05/02 01:56:17;;;;;;;39.23;31.87;;;9.80;99.90;;;;;;5031821;28;20999;-46
2021/05/02 01:58:45;;;;;;;42.00;31.03;;;10.20;99.90;;;;;;5015102;28;20493;-46
2021/05/02 02:01:15;;;;;;;37.37;29.80;;;9.90;99.90;;;;;;5018290;28;20490;-46
2021/05/02 02:03:44;;;;;;;37.37;30.03;;;9.10;99.90;;;;;;5035823;28;20978;-45
2021/05/02 02:06:13;;;;;;;39.17;31.13;;;10.10;99.90;;;;;;5036328;28;20514;-46
2021/05/02 02:08:39;;;;;;;42.63;31.33;;;9.50;99.90;;;;;;5036136;28;20438;-45
2021/05/02 02:11:06;;;;;;;37.37;30.50;;;10.10;99.90;;;;;;5036288;28;20428;-45
2021/05/02 02:13:34;;;;;;;45.37;33.97;;;9.80;99.90;;;;;;5035871;28;20960;-45
2021/05/02 02:16:05;;;;;;;40.70;31.07;;;9.80;99.90;;;;;;5036445;28;20430;-46
2021/05/02 02:18:32;;;;;;;39.47;32.03;;;9.70;99.90;;;;;;5036050;28;20763;-46
2021/05/02 02:20:59;;;;;;;42.40;32.97;;;10.10;99.90;;;;;;5036209;28;20471;-45
2021/05/02 02:23:29;;;;;;;42.17;32.10;;;9.80;99.90;;;;;;5035560;28;20447;-46
2021/05/02 02:25:59;;;;;;;42.20;33.40;;;9.70;99.90;;;;;;5035742;28;20489;-46
2021/05/02 02:28:26;;;;;;;43.03;33.77;;;9.80;99.90;;;;;;5035296;28;20423;-46
2021/05/02 02:30:58;;;;;;;42.63;33.47;;;10.20;99.90;;;;;;5035130;28;20432;-46
2021/05/02 02:33:30;;;;;;;45.07;32.80;;;10.00;99.90;;;;;;5016837;28;20487;-46
2021/05/02 02:35:57;;;;;;;43.67;32.10;;;10.00;99.90;;;;;;5034163;28;20466;-46
2021/05/02 02:38:25;;;;;;;40.63;32.27;;;9.50;99.90;;;;;;5034494;28;20431;-45
2021/05/02 02:40:53;;;;;;;43.60;32.20;;;9.50;99.90;;;;;;5034917;28;20451;-46
2021/05/02 02:43:23;;;;;;;41.60;33.97;;;10.10;99.90;;;;;;5034281;28;20477;-46
2021/05/02 02:45:54;;;;;;;42.07;33.23;;;9.60;99.90;;;;;;5035024;28;20431;-46
2021/05/02 02:48:23;;;;;;;39.60;32.87;;;9.60;99.90;;;;;;5034949;28;20454;-46
2021/05/02 02:50:51;;;;;;;41.90;32.07;;;10.00;99.90;;;;;;5034798;28;20442;-45
2021/05/02 02:53:20;;;;;;;41.40;32.07;;;9.50;99.90;;;;;;5034438;28;20992;-46
2021/05/02 02:55:57;;;;;;;43.97;33.30;;;9.60;99.90;;;;;;5034794;28;20440;-46
2021/05/02 02:58:25;;;;;;;39.70;31.40;;;9.40;99.90;;;;;;5035225;28;20435;-46
2021/05/02 03:00:53;;;;;;;43.03;31.77;;;9.40;99.90;;;;;;5034570;28;20432;-45
2021/05/02 03:03:21;;;;;;;38.60;31.90;;;9.40;99.90;;;;;;5034291;28;20458;-46
2021/05/02 03:05:51;;;;;;;39.90;31.93;;;9.30;99.90;;;;;;5034610;28;20949;-45
2021/05/02 03:08:21;;;;;;;48.43;34.23;;;9.90;99.90;;;;;;5034788;28;20428;-45
2021/05/02 03:10:50;;;;;;;41.27;32.40;;;9.90;99.90;;;;;;5015473;28;20946;-46
2021/05/02 03:13:16;;;;;;;41.53;32.33;;;9.60;99.90;;;;;;5035422;28;20451;-46
2021/05/02 03:15:43;;;;;;;43.37;34.60;;;9.30;99.90;;;;;;5036639;28;20482;-46
2021/05/02 03:18:15;;;;;;;42.77;31.97;;;9.60;99.90;;;;;;5036569;28;20439;-45
2021/05/02 03:20:45;;;;;;;45.77;33.87;;;9.30;99.90;;;;;;5034932;28;20431;-46
2021/05/02 03:23:16;;;;;;;44.00;32.80;;;9.60;99.90;;;;;;5033964;28;20451;-45
2021/05/02 03:25:43;;;;;;;44.87;32.33;;;9.10;99.90;;;;;;5034371;28;20928;-45
2021/05/02 03:28:13;;;;;;;41.87;31.97;;;9.30;99.90;;;;;;5034159;28;20435;-45
2021/05/02 03:30:42;;;;;;;43.53;33.37;;;9.90;99.90;;;;;;5034326;28;20449;-45
2021/05/02 03:33:11;;;;;;;44.17;34.37;;;9.50;99.90;;;;;;5033646;28;20455;-45
2021/05/02 03:35:42;;;;;;;44.87;32.40;;;9.20;99.90;;;;;;5034069;28;20937;-45
2021/05/02 03:38:16;;;;;;;47.80;35.47;;;9.40;99.90;;;;;;5033985;28;20427;-46
2021/05/02 03:40:43;;;;;;;44.23;34.73;;;9.40;99.90;;;;;;5033850;28;20487;-46
2021/05/02 03:43:10;;;;;;;45.60;32.93;;;9.30;99.90;;;;;;5033391;28;20463;-47
2021/05/02 03:45:36;;;;;;;45.77;33.97;;;9.50;99.90;;;;;;5033847;28;20444;-46
2021/05/02 03:48:02;;;;;;;43.20;32.77;;;9.30;99.90;;;;;;5015853;28;20490;-46
2021/05/02 03:50:29;;;;;;;44.50;32.30;;;9.70;99.90;;;;;;5033695;28;20894;-46
2021/05/02 03:52:55;;;;;;;44.27;34.37;;;10.00;99.90;;;;;;5033456;28;20505;-46
2021/05/02 03:55:22;;;;;;;40.43;33.00;;;9.50;99.90;;;;;;5015765;28;20955;-46
2021/05/02 03:57:48;;;;;;;42.93;32.87;;;9.80;99.90;;;;;;5033581;28;20652;-46
2021/05/02 04:00:16;;;;;;;45.07;34.70;;;9.40;99.90;;;;;;5033558;28;20439;-46
2021/05/02 04:02:42;;;;;;;48.07;35.57;;;9.50;99.90;;;;;;5032931;28;20561;-47
2021/05/02 04:05:09;;;;;;;43.07;34.00;;;9.60;99.90;;;;;;5033492;28;20455;-47
2021/05/02 04:07:35;;;;;;;42.50;33.00;;;9.60;99.90;;;;;;5033559;28;20444;-46
2021/05/02 04:10:02;;;;;;;42.10;32.40;;;9.30;99.90;;;;;;5033315;28;20944;-46
2021/05/02 04:12:29;;;;;;;44.00;33.20;;;9.30;99.90;;;;;;5032596;28;20818;-46
2021/05/02 04:14:55;;;;;;;46.83;31.90;;;9.40;99.90;;;;;;5033238;28;20525;-47
2021/05/02 04:17:22;;;;;;;44.50;31.83;;;9.60;99.90;;;;;;5033135;28;20427;-46
2021/05/02 04:19:51;;;;;;;46.80;33.57;;;9.70;99.90;;;;;;5033153;28;20435;-47
2021/05/02 04:22:18;;;;;;;47.20;33.30;;;9.40;99.90;;;;;;5032247;28;20487;-47
2021/05/02 04:24:46;;;;;;;45.80;32.83;;;9.40;99.90;;;;;;5032797;28;20427;-47
2021/05/02 04:27:13;;;;;;;43.10;33.80;;;9.10;99.90;;;;;;5033052;28;20545;-46
2021/05/02 04:29:40;;;;;;;43.27;32.20;;;9.40;99.90;;;;;;5032966;28;20433;-46
2021/05/02 04:32:07;;;;;;;46.33;33.90;;;9.10;99.90;;;;;;5033209;28;21052;-45
2021/05/02 04:34:33;;;;;;;43.60;33.27;;;9.20;99.90;;;;;;5032964;28;20431;-46
2021/05/02 04:36:59;;;;;;;45.63;33.17;;;9.20;99.90;;;;;;5032822;28;20436;-46
2021/05/02 04:39:26;;;;;;;48.33;34.90;;;9.30;99.90;;;;;;5032776;28;20434;-46
2021/05/02 04:41:53;;;;;;;44.93;32.67;;;9.10;99.90;;;;;;5032679;28;20475;-45
2021/05/02 04:44:20;;;;;;;47.80;31.23;;;9.50;99.90;;;;;;5053613;22;20868;-49
2021/05/02 04:46:47;;;;;;;40.57;32.50;;;9.30;99.90;;;;;;5030988;28;20916;-49
2021/05/02 04:49:14;;;;;;;49.03;36.70;;;9.40;99.90;;;;;;5030542;28;20442;-49
2021/05/02 04:51:41;;;;;;;43.30;32.70;;;9.20;99.90;;;;;;5030649;28;20486;-48
2021/05/02 04:54:08;;;;;;;43.73;31.67;;;9.40;99.90;;;;;;5030965;28;20460;-50
2021/05/02 04:56:36;;;;;;;47.30;31.40;;;9.30;99.90;;;;;;5030357;28;20535;-50
2021/05/02 04:59:02;;;;;;;48.30;33.93;;;9.50;99.90;;;;;;5030193;28;20458;-50
2021/05/02 05:01:28;;;;;;;42.67;31.97;;;9.30;99.90;;;;;;5030352;28;20478;-50
2021/05/02 05:03:56;;;;;;;44.50;33.40;;;9.50;99.90;;;;;;5029948;28;20466;-50
2021/05/02 05:06:23;;;;;;;44.60;32.73;;;9.50;99.90;;;;;;5030254;28;20500;-50
2021/05/02 05:08:50;;;;;;;46.57;33.67;;;9.40;99.90;;;;;;5030242;28;20458;-50
2021/05/02 05:11:16;;;;;;;37.80;31.10;;;8.70;99.90;;;;;;5030233;28;20458;-50
2021/05/02 05:13:42;;;;;;;39.93;31.70;;;9.50;99.90;;;;;;5030020;28;20758;-50
2021/05/02 05:16:08;;;;;;;38.33;29.50;;;8.70;99.90;;;;;;5030605;28;20764;-50
2021/05/02 05:18:35;;;;;;;40.90;31.00;;;9.70;99.90;;;;;;5030236;28;20510;-50
2021/05/02 05:21:02;;;;;;;42.33;30.50;;;9.40;99.90;;;;;;5012158;28;20509;-50
2021/05/02 05:23:28;;;;;;;43.80;31.50;;;9.80;99.90;;;;;;5030546;28;20474;-49
2021/05/02 05:25:55;;;;;;;41.33;29.20;;;9.40;99.90;;;;;;5029863;28;20443;-50
2021/05/02 05:28:23;;;;;;;38.30;30.30;;;9.60;99.90;;;;;;5030024;28;20427;-50
2021/05/02 05:30:49;;;;;;;38.20;30.60;;;10.00;99.90;;;;;;5030355;28;20462;-49
2021/05/02 05:33:15;;;;;;;44.27;30.97;;;9.80;99.90;;;;;;5029986;28;20451;-49
2021/05/02 05:35:42;;;;;;;42.10;29.37;;;9.70;99.90;;;;;;5030079;28;20534;-49
2021/05/02 05:38:09;;;;;;;40.57;29.30;;;9.60;99.90;;;;;;5030317;28;20431;-48
2021/05/02 05:40:36;;;;;;;38.67;29.20;;;9.60;99.90;;;;;;5030189;28;20454;-49
2021/05/02 05:43:03;;;;;;;42.40;31.73;;;10.00;99.90;;;;;;5029173;28;20487;-48
2021/05/02 05:45:30;;;;;;;42.97;31.70;;;9.60;99.90;;;;;;5029882;28;20438;-49
2021/05/02 05:47:56;;;;;;;43.23;30.67;;;9.30;99.90;;;;;;5030227;28;20479;-49
2021/05/02 05:50:23;;;;;;;41.57;27.73;;;9.70;99.90;;;;;;5029876;28;20467;-49
2021/05/02 05:52:51;;;;;;;37.87;29.40;;;9.90;99.90;;;;;;5029465;28;20443;-50
2021/05/02 05:55:19;;;;;;;35.67;29.47;;;10.10;99.90;;;;;;5029981;28;20432;-49
2021/05/02 05:57:45;;;;;;;38.83;29.00;;;10.10;99.90;;;;;;5030055;28;20534;-50
2021/05/02 06:00:13;;;;;;;36.63;27.07;;;9.90;99.90;;;;;;5029946;28;20989;-50
2021/05/02 06:02:39;;;;;;;35.37;28.40;;;10.10;99.90;;;;;;5029606;28;20482;-49
2021/05/02 06:05:07;;;;;;;36.67;28.97;;;10.10;99.90;;;;;;5029966;28;20435;-49
2021/05/02 06:07:33;;;;;;;33.13;27.40;;;10.00;99.90;;;;;;5029801;28;20463;-50
2021/05/02 06:09:59;;;;;;;32.40;27.43;;;9.70;99.90;;;;;;5030155;28;20526;-50
2021/05/02 06:12:27;;;;;;;33.93;26.90;;;9.80;99.90;;;;;;5029394;28;20481;-51
2021/05/02 06:14:53;;;;;;;35.90;27.60;;;10.20;99.90;;;;;;5029716;28;20431;-48
2021/05/02 06:17:19;;;;;;;31.50;25.73;;;9.80;99.90;;;;;;5029605;28;20439;-50
2021/05/02 06:19:46;;;;;;;36.50;29.53;;;9.90;99.90;;;;;;5029771;28;20442;-49
2021/05/02 06:22:12;;;;;;;34.30;25.60;;;10.60;99.90;;;;;;5029788;28;20498;-51
2021/05/02 06:24:38;;;;;;;38.63;27.57;;;10.20;99.90;;;;;;5029482;28;20489;-50
2021/05/02 06:27:05;;;;;;;33.57;27.97;;;9.80;99.90;;;;;;5029594;28;20439;-51
2021/05/02 06:29:32;;;;;;;33.20;26.90;;;10.20;99.90;;;;;;5029875;28;20423;-50
2021/05/02 06:31:58;;;;;;;30.50;27.20;;;10.10;99.90;;;;;;5029719;28;20427;-50
2021/05/02 06:34:25;;;;;;;36.63;28.70;;;10.50;99.90;;;;;;5011375;28;20525;-50
2021/05/02 06:36:57;;;;;;;36.67;28.50;;;10.00;99.90;;;;;;5011909;28;20941;-50
2021/05/02 06:39:24;;;;;;;30.90;25.70;;;9.90;99.90;;;;;;5029639;28;20962;-50
2021/05/02 06:41:50;;;;;;;33.10;28.17;;;10.10;99.90;;;;;;5029693;28;20474;-50
2021/05/02 06:44:16;;;;;;;30.27;25.90;;;9.60;99.90;;;;;;5029550;28;20474;-50
2021/05/02 06:46:43;;;;;;;33.40;26.80;;;10.40;99.90;;;;;;5033963;28;20439;-50
2021/05/02 06:49:10;;;;;;;32.70;27.00;;;9.80;99.90;;;;;;5033064;28;20774;-50
2021/05/02 06:51:38;;;;;;;31.30;27.47;;;10.40;99.90;;;;;;5032476;28;20471;-50
2021/05/02 06:54:05;;;;;;;34.60;26.87;;;10.20;99.90;;;;;;5032482;28;20462;-48
2021/05/02 06:56:33;;;;;;;32.20;26.60;;;10.60;99.90;;;;;;5032852;28;20428;-49
2021/05/02 06:59:00;;;;;;;35.20;27.13;;;10.00;99.90;;;;;;5033093;28;20913;-49
2021/05/02 07:01:26;;;;;;;36.47;26.70;;;10.40;99.90;;;;;;5032499;28;21120;-49
2021/05/02 07:03:54;;;;;;;34.27;26.73;;;10.30;99.90;;;;;;5032195;28;20546;-49
2021/05/02 07:06:20;;;;;;;27.07;24.13;;;10.20;99.90;;;;;;5032682;28;20435;-48
2021/05/02 07:08:47;;;;;;;32.37;26.43;;;10.30;99.90;;;;;;5032684;28;20483;-48
2021/05/02 07:11:13;;;;;;;31.30;25.30;;;10.50;99.90;;;;;;5032486;28;20459;-49
2021/05/02 07:13:39;;;;;;;30.00;26.80;;;10.20;99.90;;;;;;5032176;28;20491;-50
2021/05/02 07:16:08;;;;;;;25.63;21.67;;;10.60;99.90;;;;;;5032624;28;20481;-50
2021/05/02 07:18:35;;;;;;;37.10;27.20;;;10.50;99.90;;;;;;5032407;28;20432;-49
2021/05/02 07:21:03;;;;;;;30.03;24.07;;;10.40;99.90;;;;;;5014527;28;20547;-50
2021/05/02 07:23:30;;;;;;;33.97;25.37;;;10.10;99.90;;;;;;5032113;28;20487;-49
2021/05/02 07:25:56;;;;;;;28.77;24.80;;;10.30;99.90;;;;;;5033402;28;20423;-49
2021/05/02 07:28:22;;;;;;;28.17;25.13;;;9.80;99.90;;;;;;5032109;28;20531;-50
2021/05/02 07:30:49;;;;;;;28.63;23.30;;;10.30;99.90;;;;;;5014301;28;20535;-49
2021/05/02 07:33:15;;;;;;;28.50;23.47;;;10.20;99.90;;;;;;5032611;28;20642;-50
2021/05/02 07:35:41;;;;;;;28.17;23.20;;;10.30;99.90;;;;;;5032073;28;20427;-49
2021/05/02 07:38:09;;;;;;;28.47;25.47;;;10.10;99.90;;;;;;5032146;28;20913;-50
2021/05/02 07:40:35;;;;;;;30.40;25.20;;;10.10;99.90;;;;;;5031988;28;20431;-50
2021/05/02 07:43:01;;;;;;;27.30;23.67;;;10.30;99.90;;;;;;5031439;28;20510;-50
2021/05/02 07:45:28;;;;;;;32.27;26.10;;;10.20;99.90;;;;;;5031654;28;20866;-50
2021/05/02 07:47:54;;;;;;;30.70;23.50;;;10.50;99.90;;;;;;5031557;28;20512;-49
2021/05/02 07:50:21;;;;;;;30.23;27.03;;;10.40;99.90;;;;;;5031783;28;20438;-50
2021/05/02 07:52:48;;;;;;;32.60;26.20;;;10.40;99.90;;;;;;5031213;28;20444;-50
2021/05/02 07:55:15;;;;;;;27.83;24.50;;;10.40;99.90;;;;;;5031865;28;20435;-50
2021/05/02 07:57:41;;;;;;;28.80;25.27;;;10.80;99.90;;;;;;5030952;28;20797;-50
2021/05/02 08:00:19;;;;;;;26.63;23.33;;;10.20;99.90;;;;;;5013564;28;20452;-50
2021/05/02 08:02:45;;;;;;;29.43;26.20;;;10.30;99.90;;;;;;5030635;28;20486;-50
2021/05/02 08:05:12;;;;;;;28.33;24.60;;;10.40;99.90;;;;;;5031564;28;20487;-51
2021/05/02 08:07:39;;;;;;;36.10;26.67;;;10.50;99.90;;;;;;5031511;28;20761;-50
2021/05/02 08:10:07;;;;;;;30.50;26.10;;;10.50;99.90;;;;;;5013543;28;20483;-50
2021/05/02 08:12:34;;;;;;;30.03;26.57;;;10.10;99.90;;;;;;5030893;28;20455;-50
2021/05/02 08:15:00;;;;;;;28.23;25.20;;;10.20;99.90;;;;;;5031088;28;20431;-50
2021/05/02 08:17:27;;;;;;;27.77;24.87;;;10.20;99.90;;;;;;5031125;28;20511;-50
2021/05/02 08:19:53;;;;;;;33.87;27.33;;;10.50;99.90;;;;;;5031277;28;20443;-50
2021/05/02 08:22:20;;;;;;;29.37;25.47;;;10.40;99.90;;;;;;5030807;28;20476;-49
2021/05/02 08:24:46;;;;;;;32.97;29.00;;;10.60;99.90;;;;;;5031513;28;20439;-50
2021/05/02 08:27:13;;;;;;;34.07;27.80;;;10.50;99.90;;;;;;5030983;28;20435;-49
2021/05/02 08:29:40;;;;;;;33.10;26.60;;;10.60;99.90;;;;;;5031293;28;20431;-50
2021/05/02 08:32:06;;;;;;;30.07;26.87;;;9.80;99.90;;;;;;5031310;28;20481;-51
2021/05/02 08:34:33;;;;;;;32.87;27.00;;;10.40;99.90;;;;;;5030549;28;20635;-51
2021/05/02 08:36:59;;;;;;;33.43;27.43;;;10.50;99.90;;;;;;5030767;28;20432;-51
2021/05/02 08:39:25;;;;;;;30.93;27.63;;;10.30;99.90;;;;;;5030630;28;20424;-50
2021/05/02 08:41:52;;;;;;;31.57;27.13;;;10.50;99.90;;;;;;5030771;28;20498;-51
2021/05/02 08:44:23;;;;;;;32.03;27.87;;;10.60;99.90;;;;;;5032226;28;20473;-51
2021/05/02 08:46:50;;;;;;;30.50;26.90;;;10.20;99.90;;;;;;5030539;28;20862;-51
2021/05/02 08:49:18;;;;;;;36.93;29.60;;;10.40;99.90;;;;;;5030737;28;20439;-51
2021/05/02 08:51:45;;;;;;;31.87;28.47;;;10.10;99.90;;;;;;5030424;28;20436;-51
2021/05/02 08:54:11;;;;;;;32.93;28.43;;;10.40;99.90;;;;;;5030895;28;20451;-50
2021/05/02 08:56:37;;;;;;;32.03;28.63;;;10.90;99.90;;;;;;5030468;28;20447;-50
2021/05/02 08:59:04;;;;;;;30.40;26.53;;;10.80;99.90;;;;;;5030608;28;20459;-51
2021/05/02 09:01:32;;;;;;;31.13;27.70;;;10.60;99.90;;;;;;5031303;28;20482;-51
2021/05/02 09:04:02;;;;;;;33.93;28.77;;;10.60;99.90;;;;;;5012545;28;20475;-51
2021/05/02 09:06:31;;;;;;;38.10;29.50;;;10.60;99.90;;;;;;5030634;28;20440;-50
2021/05/02 09:09:02;;;;;;;35.97;29.00;;;10.50;99.90;;;;;;5030162;28;20448;-50
2021/05/02 09:11:33;;;;;;;34.93;28.50;;;10.70;99.90;;;;;;5030072;28;20559;-48
2021/05/02 09:14:03;;;;;;;35.60;29.27;;;10.60;99.90;;;;;;5011592;28;20839;-50
2021/05/02 09:16:43;;;;;;;36.10;30.57;;;10.60;99.90;;;;;;5030064;28;20431;-50
2021/05/02 09:19:10;;;;;;;38.63;29.57;;;10.80;99.90;;;;;;5029830;28;20435;-49
2021/05/02 09:21:36;;;;;;;31.30;27.63;;;10.70;99.90;;;;;;5011859;28;20939;-49
2021/05/02 09:24:07;;;;;;;29.63;26.50;;;11.10;99.90;;;;;;5029763;28;20462;-50
2021/05/02 09:26:35;;;;;;;33.37;28.60;;;11.10;99.90;;;;;;5029349;28;20542;-50
2021/05/02 09:29:06;;;;;;;36.47;30.30;;;10.80;99.90;;;;;;5029546;28;20455;-50
2021/05/02 09:31:34;;;;;;;33.50;28.03;;;11.10;99.90;;;;;;5029652;28;20439;-49
2021/05/02 09:34:12;;;;;;;35.43;29.30;;;11.10;99.90;;;;;;5028979;28;20479;-52
2021/05/02 09:36:50;;;;;;;34.97;28.53;;;11.50;99.90;;;;;;5029473;28;20431;-48
2021/05/02 09:39:34;;;;;;;30.73;27.33;;;11.70;99.90;;;;;;5029838;28;20451;-51
2021/05/02 09:42:06;;;;;;;32.63;28.40;;;11.50;99.90;;;;;;5029487;28;20472;-49
2021/05/02 09:44:38;;;;;;;31.50;27.90;;;11.80;99.90;;;;;;5029002;28;20467;-50
2021/05/02 09:47:29;;;;;;;31.20;27.80;;;11.80;99.90;;;;;;5029415;28;20438;-50
2021/05/02 09:50:15;;;;;;;33.50;29.60;;;11.60;99.90;;;;;;5029791;28;20437;-50
2021/05/02 09:52:51;;;;;;;32.73;27.67;;;11.30;99.90;;;;;;5029151;28;20467;-50
2021/05/02 09:55:29;;;;;;;32.90;29.03;;;11.40;99.90;;;;;;5029628;28;20428;-48
2021/05/02 09:57:57;;;;;;;32.17;28.70;;;11.70;99.90;;;;;;5029521;28;20444;-50
2021/05/02 10:00:32;;;;;;;31.60;27.30;;;11.10;99.90;;;;;;5029979;28;20959;-49
2021/05/02 10:02:59;;;;;;;31.10;27.83;;;11.80;99.90;;;;;;5028724;28;21066;-50
2021/05/02 10:05:28;;;;;;;30.97;27.23;;;11.40;99.90;;;;;;5029595;28;20890;-49
2021/05/02 10:07:55;;;;;;;31.93;27.63;;;11.40;99.90;;;;;;5029556;28;20515;-49
2021/05/02 10:10:22;;;;;;;31.63;27.50;;;11.60;99.90;;;;;;5029310;28;20425;-50
2021/05/02 10:12:50;;;;;;;30.63;27.33;;;11.60;99.90;;;;;;5028731;28;20551;-50
2021/05/02 10:15:19;;;;;;;30.10;24.60;;;11.60;99.90;;;;;;5029455;28;20436;-51
2021/05/02 10:17:47;;;;;;;28.87;25.87;;;11.80;99.90;;;;;;5029252;28;20439;-51
2021/05/02 10:20:14;;;;;;;31.63;27.77;;;11.80;99.90;;;;;;5013159;28;20446;-49
2021/05/02 10:22:41;;;;;;;27.93;24.10;;;12.10;99.90;;;;;;5033019;28;20491;-49
2021/05/02 10:25:10;;;;;;;30.13;24.67;;;11.80;99.90;;;;;;5033231;28;20934;-49
2021/05/02 10:27:45;;;;;;;27.27;24.07;;;11.60;99.90;;;;;;5032739;28;20984;-50
2021/05/02 10:30:20;;;;;;;26.37;23.53;;;11.90;99.90;;;;;;5032844;28;20434;-49
2021/05/02 10:32:50;;;;;;;26.40;23.70;;;11.70;99.90;;;;;;5032351;28;20553;-50
2021/05/02 10:35:16;;;;;;;27.00;23.90;;;11.70;99.90;;;;;;5033077;28;20523;-50
2021/05/02 10:37:52;;;;;;;28.80;22.30;;;12.10;99.90;;;;;;5033024;28;20433;-50
2021/05/02 10:40:29;;;;;;;25.93;23.10;;;12.00;99.90;;;;;;5032999;28;20435;-51
2021/05/02 10:42:59;;;;;;;25.67;23.00;;;12.00;99.90;;;;;;5046115;22;20505;-47
2021/05/02 10:45:41;;;;;;;23.30;20.90;;;12.70;99.90;;;;;;5015740;28;20840;-48
2021/05/02 10:48:10;;;;;;;24.33;21.90;;;11.90;99.90;;;;;;5015823;28;20436;-47
2021/05/02 10:50:40;;;;;;;23.23;21.07;;;12.50;99.90;;;;;;5016348;28;20433;-47
2021/05/02 10:53:09;;;;;;;24.10;21.50;;;12.50;99.90;;;;;;5015162;28;20460;-46
2021/05/02 10:55:47;;;;;;;24.87;22.17;;;12.80;99.90;;;;;;4997010;28;20484;-48
2021/05/02 10:58:21;;;;;;;25.50;20.80;;;12.50;99.90;;;;;;4997757;28;20458;-48
2021/05/02 11:00:50;;;;;;;24.50;20.97;;;12.60;99.90;;;;;;5015055;28;20539;-48
2021/05/02 11:03:53;;;;;;;24.17;20.00;;;12.30;99.90;;;;;;5014955;28;20840;-49
2021/05/02 11:06:54;;;;;;;23.83;21.40;;;12.40;99.90;;;;;;5015164;28;20429;-48
2021/05/02 11:09:28;;;;;;;23.13;20.70;;;12.30;99.90;;;;;;5015777;28;20931;-47
2021/05/02 11:11:57;;;;;;;30.70;21.30;;;12.40;99.90;;;;;;5015446;28;20582;-47
2021/05/02 11:14:36;;;;;;;25.47;22.77;;;12.60;99.90;;;;;;4997315;28;20573;-47
2021/05/02 11:17:21;;;;;;;23.37;20.87;;;12.70;99.90;;;;;;5015370;28;20434;-47
2021/05/02 11:19:48;;;;;;;22.70;20.50;;;12.80;99.90;;;;;;5014519;28;20898;-48
2021/05/02 11:22:17;;;;;;;21.57;19.27;;;12.80;99.90;;;;;;5014323;28;20473;-47
2021/05/02 11:25:08;;;;;;;21.63;19.50;;;12.80;99.90;;;;;;5014827;28;20453;-47
2021/05/02 11:27:56;;;;;;;21.40;19.20;;;12.90;99.90;;;;;;5014494;28;20489;-48
2021/05/02 11:30:25;;;;;;;22.77;20.20;;;12.90;99.90;;;;;;5015059;28;20474;-47
2021/05/02 11:32:53;;;;;;;23.40;20.90;;;12.90;99.90;;;;;;5013512;28;20427;-47
2021/05/02 11:35:42;;;;;;;22.87;17.83;;;13.00;99.90;;;;;;5014044;28;20441;-47
2021/05/02 11:38:15;;;;;;;21.67;19.47;;;12.80;99.90;;;;;;4996894;28;20445;-48
2021/05/02 11:40:42;;;;;;;21.27;18.70;;;12.70;99.90;;;;;;5013817;28;20473;-48
2021/05/02 11:43:11;;;;;;;20.27;18.27;;;12.70;99.90;;;;;;5013294;28;20990;-47
2021/05/02 11:45:47;;;;;;;20.03;18.03;;;12.70;99.90;;;;;;4996233;28;20554;-48
2021/05/02 11:48:21;;;;;;;18.70;16.70;;;13.20;99.90;;;;;;5014217;28;20440;-48
2021/05/02 11:50:48;;;;;;;20.70;18.50;;;12.70;99.90;;;;;;5014431;28;20457;-48
2021/05/02 11:53:34;;;;;;;20.07;18.07;;;12.60;99.90;;;;;;5014330;28;20451;-49
2021/05/02 11:56:08;;;;;;;23.37;20.87;;;12.60;99.90;;;;;;5014670;28;20478;-48
2021/05/02 11:58:35;;;;;;;22.73;20.20;;;12.80;99.90;;;;;;5014216;28;20443;-48
2021/05/02 12:01:01;;;;;;;23.87;19.50;;;12.20;99.90;;;;;;4996293;28;20996;-48
2021/05/02 12:03:36;;;;;;;22.13;20.00;;;12.70;99.90;;;;;;5013842;28;20595;-47
2021/05/02 12:06:03;;;;;;;23.10;20.70;;;12.40;99.90;;;;;;5015017;28;20525;-48
2021/05/02 12:08:29;;;;;;;22.83;20.43;;;12.50;99.90;;;;;;5013660;28;20460;-49
2021/05/02 12:10:57;;;;;;;22.10;19.73;;;12.40;99.90;;;;;;5014087;28;20451;-48
2021/05/02 12:13:34;;;;;;;25.53;20.87;;;12.60;99.90;;;;;;5013545;28;20453;-48
2021/05/02 12:16:05;;;;;;;22.47;20.17;;;12.50;99.90;;;;;;5013816;28;20486;-48
2021/05/02 12:18:46;;;;;;;25.90;21.10;;;12.80;99.90;;;;;;5013227;28;20446;-48
2021/05/02 12:21:17;;;;;;;27.30;21.80;;;12.70;99.90;;;;;;5013422;28;20430;-48
2021/05/02 12:23:45;;;;;;;27.13;21.73;;;12.60;99.90;;;;;;5013416;28;21075;-47
2021/05/02 12:26:12;;;;;;;22.13;19.93;;;12.50;99.90;;;;;;5013818;28;20438;-48
2021/05/02 12:28:40;;;;;;;26.40;21.13;;;12.80;99.90;;;;;;5013918;28;20832;-47
2021/05/02 12:31:08;;;;;;;23.50;21.20;;;12.70;99.90;;;;;;5013528;28;20431;-48
2021/05/02 12:33:36;;;;;;;28.70;21.10;;;12.80;99.90;;;;;;5013072;28;20475;-48
2021/05/02 12:36:04;;;;;;;24.73;20.03;;;13.10;99.90;;;;;;4995684;28;20471;-48
2021/05/02 12:38:30;;;;;;;21.47;18.57;;;13.20;99.90;;;;;;5013137;28;20447;-49
2021/05/02 12:40:57;;;;;;;23.27;19.00;;;13.20;99.90;;;;;;5012903;28;20446;-47